sensor_id;sensor_type;location;lat;lon;timestamp;pressure;altitude;pressure_sealevel;temperature;humidity
43312;BME280;30041;48.300;16.352;2024-02-04T00:02:08;100237.25;;;23.83;37.65
43312;BME280;30041;48.300;16.352;2024-02-04T00:04:34;100244.34;;;23.85;37.57
43312;BME280;30041;48.300;16.352;2024-02-04T00:06:59;100243.47;;;23.84;37.52
43312;BME280;30041;48.300;16.352;2024-02-04T00:09:25;100248.66;;;23.86;37.41
43312;BME280;30041;48.300;16.352;2024-02-04T00:11:51;100250.56;;;23.85;37.65
43312;BME280;30041;48.300;16.352;2024-02-04T00:14:17;100252.19;;;23.86;37.49
43312;BME280;30041;48.300;16.352;2024-02-04T00:16:43;100244.06;;;23.86;37.30
43312;BME280;30041;48.300;16.352;2024-02-04T00:19:09;100246.56;;;23.88;37.47
43312;BME280;30041;48.300;16.352;2024-02-04T00:21:34;100246.56;;;23.88;37.58
43312;BME280;30041;48.300;16.352;2024-02-04T00:24:03;100247.38;;;23.88;37.46
43312;BME280;30041;48.300;16.352;2024-02-04T00:26:29;100256.31;;;23.89;37.55
43312;BME280;30041;48.300;16.352;2024-02-04T00:28:54;100247.13;;;23.90;37.41
43312;BME280;30041;48.300;16.352;2024-02-04T00:31:20;100252.53;;;23.90;37.33
43312;BME280;30041;48.300;16.352;2024-02-04T00:33:46;100256.31;;;23.89;37.43
43312;BME280;30041;48.300;16.352;2024-02-04T00:36:12;100255.25;;;23.90;37.43
43312;BME280;30041;48.300;16.352;2024-02-04T00:38:37;100246.91;;;23.91;37.76
43312;BME280;30041;48.300;16.352;2024-02-04T00:41:03;100251.47;;;23.91;37.55
43312;BME280;30041;48.300;16.352;2024-02-04T00:43:29;100250.44;;;23.92;37.53
43312;BME280;30041;48.300;16.352;2024-02-04T00:45:55;100250.44;;;23.92;37.36
43312;BME280;30041;48.300;16.352;2024-02-04T00:48:21;100234.19;;;23.92;37.48
43312;BME280;30041;48.300;16.352;2024-02-04T00:50:46;100250.44;;;23.92;37.40
43312;BME280;30041;48.300;16.352;2024-02-04T00:53:14;100243.13;;;23.92;37.55
43312;BME280;30041;48.300;16.352;2024-02-04T00:55:41;100243.94;;;23.93;37.55
43312;BME280;30041;48.300;16.352;2024-02-04T00:58:06;100233.09;;;23.93;37.20
43312;BME280;30041;48.300;16.352;2024-02-04T01:00:32;100226.66;;;23.94;37.18
43312;BME280;30041;48.300;16.352;2024-02-04T01:02:58;100248.31;;;23.94;37.25
43312;BME280;30041;48.300;16.352;2024-02-04T01:05:24;100240.19;;;23.94;37.51
43312;BME280;30041;48.300;16.352;2024-02-04T01:07:49;100249.13;;;23.94;37.20
43312;BME280;30041;48.300;16.352;2024-02-04T01:10:15;100254.53;;;23.94;37.39
43312;BME280;30041;48.300;16.352;2024-02-04T01:12:41;100261.59;;;23.95;37.32
43312;BME280;30041;48.300;16.352;2024-02-04T01:15:07;100251.59;;;23.96;36.99
43312;BME280;30041;48.300;16.352;2024-02-04T01:17:33;100264.88;;;23.97;37.43
43312;BME280;30041;48.300;16.352;2024-02-04T01:19:59;100247.81;;;23.97;37.40
43312;BME280;30041;48.300;16.352;2024-02-04T01:22:25;100253.22;;;23.97;37.24
43312;BME280;30041;48.300;16.352;2024-02-04T01:24:50;100244.88;;;23.98;37.50
43312;BME280;30041;48.300;16.352;2024-02-04T01:27:16;100252.75;;;24.00;37.44
43312;BME280;30041;48.300;16.352;2024-02-04T01:29:42;100250.88;;;24.00;37.23
43312;BME280;30041;48.300;16.352;2024-02-04T01:32:07;100265.22;;;24.01;37.23
43312;BME280;30041;48.300;16.352;2024-02-04T01:34:33;100254.41;;;24.01;37.16
43312;BME280;30041;48.300;16.352;2024-02-04T01:36:59;100263.56;;;24.00;37.28
43312;BME280;30041;48.300;16.352;2024-02-04T01:39:25;100269.84;;;24.00;37.39
43312;BME280;30041;48.300;16.352;2024-02-04T01:41:51;100261.72;;;24.00;37.39
43312;BME280;30041;48.300;16.352;2024-02-04T01:44:19;100257.13;;;24.01;37.18
43312;BME280;30041;48.300;16.352;2024-02-04T01:46:45;100250.63;;;24.02;37.48
43312;BME280;30041;48.300;16.352;2024-02-04T01:49:11;100246.88;;;24.03;37.16
43312;BME280;30041;48.300;16.352;2024-02-04T01:51:37;100241.44;;;24.03;37.29
43312;BME280;30041;48.300;16.352;2024-02-04T01:54:03;100241.44;;;24.03;36.96
43312;BME280;30041;48.300;16.352;2024-02-04T01:56:30;100237.66;;;24.04;37.49
43312;BME280;30041;48.300;16.352;2024-02-04T01:58:57;100233.09;;;24.05;37.29
43312;BME280;30041;48.300;16.352;2024-02-04T02:01:25;100241.44;;;24.03;37.20
43312;BME280;30041;48.300;16.352;2024-02-04T02:03:51;100253.09;;;24.03;37.36
43312;BME280;30041;48.300;16.352;2024-02-04T02:06:17;100243.94;;;24.05;37.16
43312;BME280;30041;48.300;16.352;2024-02-04T02:08:44;100246.38;;;24.06;37.13
43312;BME280;30041;48.300;16.352;2024-02-04T02:11:15;100248.25;;;24.06;37.14
43312;BME280;30041;48.300;16.352;2024-02-04T02:13:44;100249.09;;;24.06;37.21
43312;BME280;30041;48.300;16.352;2024-02-04T02:16:16;100251.78;;;24.06;36.99
43312;BME280;30041;48.300;16.352;2024-02-04T02:18:45;100247.44;;;24.05;37.35
43312;BME280;30041;48.300;16.352;2024-02-04T02:24:15;100243.44;;;24.08;37.11
43312;BME280;30041;48.300;16.352;2024-02-04T02:26:43;100249.09;;;24.06;37.22
43312;BME280;30041;48.300;16.352;2024-02-04T02:29:09;100246.38;;;24.06;37.27
43312;BME280;30041;48.300;16.352;2024-02-04T02:31:36;100239.91;;;24.07;37.37
43312;BME280;30041;48.300;16.352;2024-02-04T02:34:02;100235.09;;;24.09;37.15
43312;BME280;30041;48.300;16.352;2024-02-04T02:36:34;100226.13;;;24.09;37.24
43312;BME280;30041;48.300;16.352;2024-02-04T02:39:08;100223.41;;;24.09;37.21
43312;BME280;30041;48.300;16.352;2024-02-04T02:41:35;100223.41;;;24.09;37.08
43312;BME280;30041;48.300;16.352;2024-02-04T02:44:03;100219.06;;;24.08;37.08
43312;BME280;30041;48.300;16.352;2024-02-04T02:46:30;100224.47;;;24.08;37.24
43312;BME280;30041;48.300;16.352;2024-02-04T02:48:57;100219.66;;;24.10;37.00
43312;BME280;30041;48.300;16.352;2024-02-04T02:51:23;100221.53;;;24.09;37.23
43312;BME280;30041;48.300;16.352;2024-02-04T02:53:48;100216.69;;;24.11;37.10
43312;BME280;30041;48.300;16.352;2024-02-04T02:56:14;100225.88;;;24.10;37.34
43312;BME280;30041;48.300;16.352;2024-02-04T02:58:40;100220.47;;;24.10;36.84
43312;BME280;30041;48.300;16.352;2024-02-04T03:01:05;100224.00;;;24.11;36.96
43312;BME280;30041;48.300;16.352;2024-02-04T03:03:31;100218.34;;;24.12;37.25
43312;BME280;30041;48.300;16.352;2024-02-04T03:05:57;100211.25;;;24.11;36.81
43312;BME280;30041;48.300;16.352;2024-02-04T03:08:23;100205.03;;;24.11;36.91
43312;BME280;30041;48.300;16.352;2024-02-04T03:10:48;100204.00;;;24.12;36.80
43312;BME280;30041;48.300;16.352;2024-02-04T03:13:14;100204.56;;;24.14;36.89
43312;BME280;30041;48.300;16.352;2024-02-04T03:15:40;100201.00;;;24.13;36.93
43312;BME280;30041;48.300;16.352;2024-02-04T03:18:06;100211.03;;;24.13;37.05
43312;BME280;30041;48.300;16.352;2024-02-04T03:20:32;100211.63;;;24.15;37.21
43312;BME280;30041;48.300;16.352;2024-02-04T03:22:58;100211.63;;;24.15;37.10
43312;BME280;30041;48.300;16.352;2024-02-04T03:25:26;100213.50;;;24.14;37.18
43312;BME280;30041;48.300;16.352;2024-02-04T03:27:52;100208.09;;;24.14;36.94
43312;BME280;30041;48.300;16.352;2024-02-04T03:30:18;100208.31;;;24.13;36.96
43312;BME280;30041;48.300;16.352;2024-02-04T03:32:44;100208.91;;;24.15;36.84
43312;BME280;30041;48.300;16.352;2024-02-04T03:35:10;100229.53;;;24.16;37.17
43312;BME280;30041;48.300;16.352;2024-02-04T03:37:36;100202.44;;;24.16;36.83
43312;BME280;30041;48.300;16.352;2024-02-04T03:40:02;100217.84;;;24.15;37.03
43312;BME280;30041;48.300;16.352;2024-02-04T03:45:44;100224.09;;;24.16;36.95
43312;BME280;30041;48.300;16.352;2024-02-04T03:48:10;100212.44;;;24.15;37.01
43312;BME280;30041;48.300;16.352;2024-02-04T03:50:36;100208.69;;;24.16;37.21
43312;BME280;30041;48.300;16.352;2024-02-04T03:53:02;100207.88;;;24.16;37.15
43312;BME280;30041;48.300;16.352;2024-02-04T03:55:27;100201.59;;;24.15;36.85
43312;BME280;30041;48.300;16.352;2024-02-04T03:57:54;100208.69;;;24.16;36.92
43312;BME280;30041;48.300;16.352;2024-02-04T04:00:20;100208.69;;;24.16;37.08
43312;BME280;30041;48.300;16.352;2024-02-04T04:02:46;100206.78;;;24.17;37.21
43312;BME280;30041;48.300;16.352;2024-02-04T04:05:12;100209.72;;;24.15;37.15
43312;BME280;30041;48.300;16.352;2024-02-04T04:07:40;100224.44;;;24.19;36.80
43312;BME280;30041;48.300;16.352;2024-02-04T04:10:06;100229.84;;;24.19;36.67
43312;BME280;30041;48.300;16.352;2024-02-04T04:12:32;100223.63;;;24.19;36.89
43312;BME280;30041;48.300;16.352;2024-02-04T04:14:58;100218.19;;;24.19;37.13
43312;BME280;30041;48.300;16.352;2024-02-04T04:17:26;100205.72;;;24.18;36.86
43312;BME280;30041;48.300;16.352;2024-02-04T04:19:52;100217.38;;;24.18;36.90
43312;BME280;30041;48.300;16.352;2024-02-04T04:22:18;100211.69;;;24.20;36.66
43312;BME280;30041;48.300;16.352;2024-02-04T04:24:43;100229.03;;;24.19;37.02
43312;BME280;30041;48.300;16.352;2024-02-04T04:27:09;100220.09;;;24.18;37.07
43312;BME280;30041;48.300;16.352;2024-02-04T04:29:37;100224.44;;;24.19;36.67
43312;BME280;30041;48.300;16.352;2024-02-04T04:32:04;100219.00;;;24.19;36.97
43312;BME280;30041;48.300;16.352;2024-02-04T04:34:30;100207.38;;;24.19;37.03
43312;BME280;30041;48.300;16.352;2024-02-04T04:36:55;100204.66;;;24.19;37.00
43312;BME280;30041;48.300;16.352;2024-02-04T04:39:21;100200.88;;;24.20;36.83
43312;BME280;30041;48.300;16.352;2024-02-04T04:41:47;100221.50;;;24.21;37.02
43312;BME280;30041;48.300;16.352;2024-02-04T04:44:13;100212.56;;;24.20;37.09
43312;BME280;30041;48.300;16.352;2024-02-04T04:46:39;100206.06;;;24.21;36.76
43312;BME280;30041;48.300;16.352;2024-02-04T04:49:05;100210.66;;;24.21;36.78
43312;BME280;30041;48.300;16.352;2024-02-04T04:51:31;100213.13;;;24.22;36.62
43312;BME280;30041;48.300;16.352;2024-02-04T04:53:57;100213.13;;;24.22;36.86
43312;BME280;30041;48.300;16.352;2024-02-04T04:56:23;100222.88;;;24.23;36.86
43312;BME280;30041;48.300;16.352;2024-02-04T04:58:48;100223.97;;;24.22;36.84
43312;BME280;30041;48.300;16.352;2024-02-04T05:01:14;100227.50;;;24.23;36.98
43312;BME280;30041;48.300;16.352;2024-02-04T05:03:40;100219.59;;;24.21;36.73
43312;BME280;30041;48.300;16.352;2024-02-04T05:06:06;100233.94;;;24.22;36.69
43312;BME280;30041;48.300;16.352;2024-02-04T05:08:32;100235.63;;;24.23;37.04
43312;BME280;30041;48.300;16.352;2024-02-04T05:10:57;100239.97;;;24.24;36.80
43312;BME280;30041;48.300;16.352;2024-02-04T05:13:23;100241.84;;;24.23;36.83
43312;BME280;30041;48.300;16.352;2024-02-04T05:15:49;100243.47;;;24.24;36.64
43312;BME280;30041;48.300;16.352;2024-02-04T05:18:15;100241.84;;;24.23;36.90
43312;BME280;30041;48.300;16.352;2024-02-04T05:20:40;100250.78;;;24.24;36.88
43312;BME280;30041;48.300;16.352;2024-02-04T05:23:06;100235.63;;;24.23;36.81
43312;BME280;30041;48.300;16.352;2024-02-04T05:25:32;100231.81;;;24.24;36.79
43312;BME280;30041;48.300;16.352;2024-02-04T05:27:58;100221.00;;;24.24;37.00
43312;BME280;30041;48.300;16.352;2024-02-04T05:30:24;100216.41;;;24.24;36.98
43312;BME280;30041;48.300;16.352;2024-02-04T05:32:49;100226.41;;;24.24;36.75
43312;BME280;30041;48.300;16.352;2024-02-04T05:35:15;100227.22;;;24.24;36.88
43312;BME280;30041;48.300;16.352;2024-02-04T05:37:41;100228.88;;;24.26;36.82
43312;BME280;30041;48.300;16.352;2024-02-04T05:40:07;100225.94;;;24.27;36.67
43312;BME280;30041;48.300;16.352;2024-02-04T05:42:33;100225.94;;;24.27;36.76
43312;BME280;30041;48.300;16.352;2024-02-04T05:44:59;100230.53;;;24.27;36.59
43312;BME280;30041;48.300;16.352;2024-02-04T05:47:27;100221.56;;;24.26;36.82
43312;BME280;30041;48.300;16.352;2024-02-04T05:49:52;100240.53;;;24.26;36.83
43312;BME280;30041;48.300;16.352;2024-02-04T05:52:18;100224.06;;;24.28;36.85
43312;BME280;30041;48.300;16.352;2024-02-04T05:54:44;100224.06;;;24.28;36.84
43312;BME280;30041;48.300;16.352;2024-02-04T05:57:10;100221.34;;;24.28;36.64
43312;BME280;30041;48.300;16.352;2024-02-04T05:59:38;100232.19;;;24.28;36.76
43312;BME280;30041;48.300;16.352;2024-02-04T06:02:03;100243.00;;;24.28;36.63
43312;BME280;30041;48.300;16.352;2024-02-04T06:04:29;100239.22;;;24.29;36.62
43312;BME280;30041;48.300;16.352;2024-02-04T06:06:55;100237.09;;;24.31;36.61
43312;BME280;30041;48.300;16.352;2024-02-04T06:09:21;100236.28;;;24.30;36.81
43312;BME280;30041;48.300;16.352;2024-02-04T06:11:46;100226.28;;;24.31;36.91
43312;BME280;30041;48.300;16.352;2024-02-04T06:14:13;100237.91;;;24.31;36.45
43312;BME280;30041;48.300;16.352;2024-02-04T06:16:39;100244.19;;;24.32;36.64
43312;BME280;30041;48.300;16.352;2024-02-04T06:19:04;100252.31;;;24.32;36.63
43312;BME280;30041;48.300;16.352;2024-02-04T06:21:30;100257.72;;;24.32;36.48
43312;BME280;30041;48.300;16.352;2024-02-04T06:23:56;100264.78;;;24.33;36.51
43312;BME280;30041;48.300;16.352;2024-02-04T06:26:22;100253.94;;;24.33;36.83
43312;BME280;30041;48.300;16.352;2024-02-04T06:28:48;100245.81;;;24.33;36.53
43312;BME280;30041;48.300;16.352;2024-02-04T06:31:14;100236.06;;;24.32;36.86
43312;BME280;30041;48.300;16.352;2024-02-04T06:33:42;100241.22;;;24.33;36.62
43312;BME280;30041;48.300;16.352;2024-02-04T06:36:09;100222.25;;;24.33;36.51
43312;BME280;30041;48.300;16.352;2024-02-04T06:38:35;100236.63;;;24.34;36.50
43312;BME280;30041;48.300;16.352;2024-02-04T06:41:01;100240.97;;;24.35;36.62
43312;BME280;30041;48.300;16.352;2024-02-04T06:43:26;100257.22;;;24.35;36.63
43312;BME280;30041;48.300;16.352;2024-02-04T06:45:52;100264.31;;;24.36;36.58
43312;BME280;30041;48.300;16.352;2024-02-04T06:48:21;100261.59;;;24.36;36.48
43312;BME280;30041;48.300;16.352;2024-02-04T06:50:47;100271.34;;;24.37;36.74
43312;BME280;30041;48.300;16.352;2024-02-04T06:53:13;100288.69;;;24.36;36.59
43312;BME280;30041;48.300;16.352;2024-02-04T06:55:39;100279.25;;;24.38;36.78
43312;BME280;30041;48.300;16.352;2024-02-04T06:58:05;100291.41;;;24.36;36.58
43312;BME280;30041;48.300;16.352;2024-02-04T07:00:31;100290.31;;;24.37;36.64
43312;BME280;30041;48.300;16.352;2024-02-04T07:02:57;100290.91;;;24.39;36.56
43312;BME280;30041;48.300;16.352;2024-02-04T07:05:22;100321.53;;;24.39;36.68
43312;BME280;30041;48.300;16.352;2024-02-04T07:07:49;100300.66;;;24.40;36.44
43312;BME280;30041;48.300;16.352;2024-02-04T07:10:16;100281.69;;;24.40;36.53
43312;BME280;30041;48.300;16.352;2024-02-04T07:12:42;100287.13;;;24.40;36.59
43312;BME280;30041;48.300;16.352;2024-02-04T07:15:07;100289.84;;;24.40;36.79
43312;BME280;30041;48.300;16.352;2024-02-04T07:17:33;100304.22;;;24.40;36.72
43312;BME280;30041;48.300;16.352;2024-02-04T07:19:59;100299.63;;;24.41;36.66
43312;BME280;30041;48.300;16.352;2024-02-04T07:22:25;100300.44;;;24.41;36.29
43312;BME280;30041;48.300;16.352;2024-02-04T07:24:51;100296.91;;;24.41;36.54
43312;BME280;30041;48.300;16.352;2024-02-04T07:27:17;100295.84;;;24.42;36.72
43312;BME280;30041;48.300;16.352;2024-02-04T07:29:42;100305.63;;;24.43;36.78
43312;BME280;30041;48.300;16.352;2024-02-04T07:32:08;100312.09;;;24.42;36.46
43312;BME280;30041;48.300;16.352;2024-02-04T07:34:34;100308.34;;;24.43;36.59
43312;BME280;30041;48.300;16.352;2024-02-04T07:37:02;100311.84;;;24.43;36.58
43312;BME280;30041;48.300;16.352;2024-02-04T07:39:28;100315.38;;;24.44;36.92
43312;BME280;30041;48.300;16.352;2024-02-04T07:41:53;100314.34;;;24.45;36.83
43312;BME280;30041;48.300;16.352;2024-02-04T07:44:19;100308.91;;;24.45;36.80
43312;BME280;30041;48.300;16.352;2024-02-04T07:46:45;100309.72;;;24.45;36.65
43312;BME280;30041;48.300;16.352;2024-02-04T07:49:11;100290.53;;;24.47;36.62
43312;BME280;30041;48.300;16.352;2024-02-04T07:51:36;100279.69;;;24.47;36.48
43312;BME280;30041;48.300;16.352;2024-02-04T07:54:02;100293.25;;;24.47;36.67
43312;BME280;30041;48.300;16.352;2024-02-04T07:56:28;100293.25;;;24.47;36.88
43312;BME280;30041;48.300;16.352;2024-02-04T07:58:54;100277.84;;;24.48;36.70
43312;BME280;30041;48.300;16.352;2024-02-04T08:01:20;100282.16;;;24.49;36.77
43312;BME280;30041;48.300;16.352;2024-02-04T08:03:45;100282.16;;;24.49;36.63
43312;BME280;30041;48.300;16.352;2024-02-04T08:06:11;100279.47;;;24.49;36.90
43312;BME280;30041;48.300;16.352;2024-02-04T08:08:37;100293.59;;;24.51;36.74
43312;BME280;30041;48.300;16.352;2024-02-04T08:11:03;100288.41;;;24.49;36.50
43312;BME280;30041;48.300;16.352;2024-02-04T08:13:28;100287.34;;;24.50;36.73
43312;BME280;30041;48.300;16.352;2024-02-04T08:15:54;100283.84;;;24.50;36.45
43312;BME280;30041;48.300;16.352;2024-02-04T08:18:20;100291.69;;;24.51;36.69
43312;BME280;30041;48.300;16.352;2024-02-04T08:20:45;100297.13;;;24.51;36.54
43312;BME280;30041;48.300;16.352;2024-02-04T08:23:11;100305.25;;;24.51;36.88
43312;BME280;30041;48.300;16.352;2024-02-04T08:25:37;100298.78;;;24.52;36.47
43312;BME280;30041;48.300;16.352;2024-02-04T08:28:03;100313.97;;;24.53;36.75
43312;BME280;30041;48.300;16.352;2024-02-04T08:30:29;100302.31;;;24.53;36.67
43312;BME280;30041;48.300;16.352;2024-02-04T08:32:55;100298.78;;;24.52;36.62
43312;BME280;30041;48.300;16.352;2024-02-04T08:35:20;100312.91;;;24.54;36.74
43312;BME280;30041;48.300;16.352;2024-02-04T08:37:46;100301.25;;;24.54;36.67
43312;BME280;30041;48.300;16.352;2024-02-04T08:40:12;100300.19;;;24.55;36.50
43312;BME280;30041;48.300;16.352;2024-02-04T08:42:38;100285.81;;;24.54;36.47
43312;BME280;30041;48.300;16.352;2024-02-04T08:45:05;100279.56;;;24.42;37.89
43312;BME280;30041;48.300;16.352;2024-02-04T08:47:31;100291.00;;;24.03;37.94
43312;BME280;30041;48.300;16.352;2024-02-04T08:49:56;100275.38;;;23.82;38.41
43312;BME280;30041;48.300;16.352;2024-02-04T08:52:22;100285.75;;;23.73;38.49
43312;BME280;30041;48.300;16.352;2024-02-04T08:54:51;100292.06;;;23.55;37.99
43312;BME280;30041;48.300;16.352;2024-02-04T08:57:16;100271.25;;;23.32;38.91
43312;BME280;30041;48.300;16.352;2024-02-04T08:59:42;100271.03;;;23.22;38.72
43312;BME280;30041;48.300;16.352;2024-02-04T09:02:08;100248.94;;;23.13;38.93
43312;BME280;30041;48.300;16.352;2024-02-04T09:04:34;100273.47;;;23.12;38.61
43312;BME280;30041;48.300;16.352;2024-02-04T09:07:00;100254.44;;;23.07;38.63
43312;BME280;30041;48.300;16.352;2024-02-04T09:09:26;100247.38;;;23.06;38.70
43312;BME280;30041;48.300;16.352;2024-02-04T09:11:56;100263.25;;;23.02;38.13
43312;BME280;30041;48.300;16.352;2024-02-04T09:14:22;100257.66;;;22.97;38.29
43312;BME280;30041;48.300;16.352;2024-02-04T09:16:48;100248.97;;;22.95;38.08
43312;BME280;30041;48.300;16.352;2024-02-04T09:19:14;100266.72;;;22.91;38.25
43312;BME280;30041;48.300;16.352;2024-02-04T09:21:40;100271.75;;;22.87;38.22
43312;BME280;30041;48.300;16.352;2024-02-04T09:24:06;100258.72;;;22.84;37.64
43312;BME280;30041;48.300;16.352;2024-02-04T09:26:32;100256.03;;;22.84;37.65
43312;BME280;30041;48.300;16.352;2024-02-04T09:28:58;100249.44;;;22.80;38.14
43312;BME280;30041;48.300;16.352;2024-02-04T09:31:24;100243.88;;;22.75;37.77
43312;BME280;30041;48.300;16.352;2024-02-04T09:33:49;100225.22;;;22.73;37.89
43312;BME280;30041;48.300;16.352;2024-02-04T09:36:15;100215.22;;;22.74;37.89
43312;BME280;30041;48.300;16.352;2024-02-04T09:38:41;100250.13;;;22.75;38.04
43312;BME280;30041;48.300;16.352;2024-02-04T09:41:07;100228.81;;;22.67;37.01
43312;BME280;30041;48.300;16.352;2024-02-04T09:43:35;100230.00;;;22.59;37.78
43312;BME280;30041;48.300;16.352;2024-02-04T09:46:01;100230.22;;;22.58;37.21
43312;BME280;30041;48.300;16.352;2024-02-04T09:48:32;100240.44;;;22.68;38.68
43312;BME280;30041;48.300;16.352;2024-02-04T09:51:05;100238.72;;;22.73;38.81
43312;BME280;30041;48.300;16.352;2024-02-04T09:53:35;100243.19;;;22.79;39.20
43312;BME280;30041;48.300;16.352;2024-02-04T09:56:04;100235.44;;;22.83;39.62
43312;BME280;30041;48.300;16.352;2024-02-04T09:58:31;100235.09;;;22.79;39.05
43312;BME280;30041;48.300;16.352;2024-02-04T10:00:57;100224.84;;;22.70;38.17
43312;BME280;30041;48.300;16.352;2024-02-04T10:03:23;100226.72;;;22.69;38.45
43312;BME280;30041;48.300;16.352;2024-02-04T10:05:49;100223.53;;;22.61;37.70
43312;BME280;30041;48.300;16.352;2024-02-04T10:08:14;100242.75;;;22.52;37.75
43312;BME280;30041;48.300;16.352;2024-02-04T10:10:40;100221.13;;;22.52;38.95
43312;BME280;30041;48.300;16.352;2024-02-04T10:13:09;100215.19;;;22.62;39.18
43312;BME280;30041;48.300;16.352;2024-02-04T10:15:36;100213.44;;;22.68;39.62
43312;BME280;30041;48.300;16.352;2024-02-04T10:18:07;100228.13;;;22.72;39.58
43312;BME280;30041;48.300;16.352;2024-02-04T10:20:34;100207.09;;;22.74;39.53
43312;BME280;30041;48.300;16.352;2024-02-04T10:23:00;100207.94;;;22.74;38.98
43312;BME280;30041;48.300;16.352;2024-02-04T10:25:26;100207.44;;;22.66;38.63
43312;BME280;30041;48.300;16.352;2024-02-04T10:27:55;100194.28;;;22.69;38.97
43312;BME280;30041;48.300;16.352;2024-02-04T10:30:21;100207.59;;;22.71;39.22
43312;BME280;30041;48.300;16.352;2024-02-04T10:32:51;100185.97;;;22.71;39.20
43312;BME280;30041;48.300;16.352;2024-02-04T10:35:17;100186.31;;;22.74;39.60
43312;BME280;30041;48.300;16.352;2024-02-04T10:37:43;100169.28;;;22.74;39.72
43312;BME280;30041;48.300;16.352;2024-02-04T10:40:08;100174.47;;;22.75;39.42
43312;BME280;30041;48.300;16.352;2024-02-04T10:42:35;100171.97;;;22.74;39.41
43312;BME280;30041;48.300;16.352;2024-02-04T10:45:06;100166.81;;;22.72;39.05
43312;BME280;30041;48.300;16.352;2024-02-04T10:47:35;100161.06;;;22.69;38.90
43312;BME280;30041;48.300;16.352;2024-02-04T10:50:06;100151.28;;;22.68;38.75
43312;BME280;30041;48.300;16.352;2024-02-04T10:52:37;100152.94;;;22.69;38.54
43312;BME280;30041;48.300;16.352;2024-02-04T10:55:07;100137.34;;;22.71;39.15
43312;BME280;30041;48.300;16.352;2024-02-04T10:57:33;100137.94;;;22.73;38.58
43312;BME280;30041;48.300;16.352;2024-02-04T11:00:03;100162.25;;;22.73;38.50
43312;BME280;30041;48.300;16.352;2024-02-04T11:02:29;100155.78;;;22.74;38.87
43312;BME280;30041;48.300;16.352;2024-02-04T11:04:57;100145.19;;;22.72;38.65
43312;BME280;30041;48.300;16.352;2024-02-04T11:07:23;100147.66;;;22.74;38.67
43312;BME280;30041;48.300;16.352;2024-02-04T11:09:51;100144.16;;;22.73;38.47
43312;BME280;30041;48.300;16.352;2024-02-04T11:12:18;100131.44;;;22.74;38.59
43312;BME280;30041;48.300;16.352;2024-02-04T11:14:50;100134.16;;;22.74;38.52
43312;BME280;30041;48.300;16.352;2024-02-04T11:18:00;100136.03;;;22.73;38.42
43312;BME280;30041;48.300;16.352;2024-02-04T11:20:58;100138.50;;;22.75;38.53
43312;BME280;30041;48.300;16.352;2024-02-04T11:26:16;100128.16;;;22.72;38.30
43312;BME280;30041;48.300;16.352;2024-02-04T11:28:42;100113.84;;;22.71;38.53
43312;BME280;30041;48.300;16.352;2024-02-04T11:31:18;100135.22;;;22.73;38.30
43312;BME280;30041;48.300;16.352;2024-02-04T11:33:44;100133.94;;;22.75;38.52
43312;BME280;30041;48.300;16.352;2024-02-04T11:36:15;100140.75;;;22.78;38.62
43312;BME280;30041;48.300;16.352;2024-02-04T11:38:41;100128.03;;;22.78;38.83
43312;BME280;30041;48.300;16.352;2024-02-04T11:41:07;100138.84;;;22.78;38.88
43312;BME280;30041;48.300;16.352;2024-02-04T11:43:34;100133.44;;;22.78;38.57
43312;BME280;30041;48.300;16.352;2024-02-04T11:45:59;100135.34;;;22.78;38.81
43312;BME280;30041;48.300;16.352;2024-02-04T11:48:29;100127.00;;;22.79;38.67
43312;BME280;30041;48.300;16.352;2024-02-04T11:50:56;100130.53;;;22.80;38.90
43312;BME280;30041;48.300;16.352;2024-02-04T11:53:22;100142.38;;;22.79;38.75
43312;BME280;30041;48.300;16.352;2024-02-04T11:55:51;100129.22;;;22.83;39.03
43312;BME280;30041;48.300;16.352;2024-02-04T11:58:18;100125.13;;;22.80;38.88
43312;BME280;30041;48.300;16.352;2024-02-04T12:00:48;100137.44;;;22.76;38.99
43312;BME280;30041;48.300;16.352;2024-02-04T12:03:14;100115.72;;;22.71;39.08
43312;BME280;30041;48.300;16.352;2024-02-04T12:05:39;100122.16;;;22.70;39.07
43312;BME280;30041;48.300;16.352;2024-02-04T12:08:07;100108.66;;;22.70;39.13
43312;BME280;30041;48.300;16.352;2024-02-04T12:10:35;100104.91;;;22.71;39.33
43312;BME280;30041;48.300;16.352;2024-02-04T12:13:19;100088.69;;;22.71;39.25
43312;BME280;30041;48.300;16.352;2024-02-04T12:15:45;100107.03;;;22.69;39.30
43312;BME280;30041;48.300;16.352;2024-02-04T12:18:11;100112.44;;;22.69;39.41
43312;BME280;30041;48.300;16.352;2024-02-04T12:20:38;100106.44;;;22.67;39.45
43312;BME280;30041;48.300;16.352;2024-02-04T12:23:04;100118.88;;;22.68;39.71
43312;BME280;30041;48.300;16.352;2024-02-04T12:25:31;100118.06;;;22.67;39.78
43312;BME280;30041;48.300;16.352;2024-02-04T12:28:01;100104.75;;;22.66;39.64
43312;BME280;30041;48.300;16.352;2024-02-04T12:30:29;100103.94;;;22.65;39.65
43312;BME280;30041;48.300;16.352;2024-02-04T12:33:03;100103.94;;;22.65;39.84
43312;BME280;30041;48.300;16.352;2024-02-04T12:35:30;100099.63;;;22.64;39.80
43312;BME280;30041;48.300;16.352;2024-02-04T12:37:57;100107.47;;;22.66;39.96
43312;BME280;30041;48.300;16.352;2024-02-04T12:40:23;100105.63;;;22.66;39.90
43312;BME280;30041;48.300;16.352;2024-02-04T12:42:54;100113.72;;;22.66;39.55
43312;BME280;30041;48.300;16.352;2024-02-04T12:45:21;100103.13;;;22.65;39.79
43312;BME280;30041;48.300;16.352;2024-02-04T12:47:51;100089.63;;;22.65;39.63